createdAt,value
2023-03-15T00:01:49.484Z,4.80
2023-03-15T00:04:16.668Z,4.68
2023-03-15T00:06:43.541Z,5.13
2023-03-15T00:09:11.431Z,5.00
2023-03-15T00:11:38.346Z,4.50
2023-03-15T00:14:06.093Z,4.53
2023-03-15T00:16:33.009Z,4.63
2023-03-15T00:19:00.623Z,5.07
2023-03-15T00:21:29.887Z,5.20
2023-03-15T00:23:57.208Z,4.40
2023-03-15T00:26:24.460Z,4.80
2023-03-15T00:28:51.390Z,4.72
2023-03-15T00:31:23.831Z,5.00
2023-03-15T00:33:53.905Z,4.78
2023-03-15T00:36:25.375Z,5.38
2023-03-15T00:38:56.457Z,5.03
2023-03-15T00:41:23.975Z,5.78
2023-03-15T00:43:51.740Z,6.07
2023-03-15T00:46:19.933Z,5.75
2023-03-15T00:48:51.279Z,7.05
2023-03-15T00:51:21.485Z,6.85
2023-03-15T00:53:49.836Z,7.55
2023-03-15T00:56:30.186Z,7.20
2023-03-15T00:58:58.362Z,7.47
2023-03-15T01:01:28.443Z,7.50
2023-03-15T01:03:56.162Z,8.00
2023-03-15T01:06:25.584Z,8.20
2023-03-15T01:08:54.453Z,8.35
2023-03-15T01:11:24.792Z,8.75
2023-03-15T01:13:54.252Z,9.25
2023-03-15T01:16:21.907Z,9.52
2023-03-15T01:18:48.848Z,9.32
2023-03-15T01:21:16.332Z,9.63
2023-03-15T01:23:43.187Z,10.85
2023-03-15T01:26:13.082Z,12.32
2023-03-15T01:28:40.149Z,12.23
2023-03-15T01:31:07.349Z,13.20
2023-03-15T01:33:34.422Z,14.82
2023-03-15T01:36:04.115Z,14.38
2023-03-15T01:38:31.533Z,15.98
2023-03-15T01:40:58.748Z,16.60
2023-03-15T01:43:28.405Z,17.52
2023-03-15T01:46:19.856Z,17.65
2023-03-15T01:49:02.521Z,17.80
2023-03-15T01:51:33.030Z,17.33
2023-03-15T01:54:09.238Z,17.45
2023-03-15T01:56:39.223Z,18.52
2023-03-15T01:59:11.908Z,18.05
2023-03-15T02:01:45.642Z,18.23
2023-03-15T02:04:18.630Z,16.55
2023-03-15T02:06:47.766Z,17.73
2023-03-15T02:09:17.418Z,17.55
2023-03-15T02:11:44.324Z,17.60
2023-03-15T02:14:13.657Z,18.55
2023-03-15T02:16:40.750Z,18.10
2023-03-15T02:19:18.441Z,17.90
2023-03-15T02:22:13.342Z,18.00
2023-03-15T02:24:58.967Z,18.70
2023-03-15T02:27:31.790Z,19.27
2023-03-15T02:29:59.030Z,18.75
2023-03-15T02:32:26.184Z,18.92
2023-03-15T02:34:53.004Z,19.42
2023-03-15T02:37:19.887Z,17.95
2023-03-15T02:39:46.851Z,18.38
2023-03-15T02:42:14.624Z,18.63
2023-03-15T02:44:44.770Z,18.23
2023-03-15T02:47:16.707Z,18.08
2023-03-15T02:49:46.545Z,18.83
2023-03-15T02:52:14.066Z,19.13
2023-03-15T02:54:43.706Z,18.48
2023-03-15T02:57:12.387Z,19.80
2023-03-15T02:59:39.851Z,19.13
2023-03-15T03:02:06.833Z,18.15
2023-03-15T03:04:33.719Z,17.85
2023-03-15T03:07:00.571Z,17.70
2023-03-15T03:09:27.914Z,16.92
2023-03-15T03:11:54.747Z,15.95
2023-03-15T03:14:23.883Z,15.90
2023-03-15T03:16:51.501Z,14.52
2023-03-15T03:19:18.705Z,15.25
2023-03-15T03:21:45.498Z,15.18
2023-03-15T03:24:16.127Z,15.38
2023-03-15T03:26:46.218Z,14.02
2023-03-15T03:29:16.556Z,13.63
2023-03-15T03:31:44.992Z,14.38
2023-03-15T03:34:15.457Z,14.35
2023-03-15T03:36:43.287Z,14.20
2023-03-15T03:39:11.003Z,14.48
2023-03-15T03:41:37.898Z,14.82
2023-03-15T03:44:04.949Z,15.45
2023-03-15T03:46:32.324Z,15.80
2023-03-15T03:48:59.234Z,14.88
2023-03-15T03:51:26.121Z,14.48
2023-03-15T03:53:52.915Z,14.48
2023-03-15T03:56:19.763Z,14.38
2023-03-15T03:58:46.569Z,13.85
2023-03-15T04:01:13.380Z,13.95
2023-03-15T04:03:40.182Z,14.00
2023-03-15T04:06:07.105Z,12.95
2023-03-15T04:08:34.136Z,14.10
2023-03-15T04:11:04.098Z,13.85
2023-03-15T04:13:31.356Z,13.73
2023-03-15T04:15:58.766Z,13.68
2023-03-15T04:18:25.747Z,14.05
2023-03-15T04:20:54.717Z,12.63
2023-03-15T04:23:23.753Z,11.43
2023-03-15T04:25:58.143Z,11.88
2023-03-15T04:28:25.072Z,12.15
2023-03-15T04:30:52.141Z,11.57
2023-03-15T04:33:18.932Z,11.93
2023-03-15T04:35:45.848Z,11.63
2023-03-15T04:38:12.655Z,13.40
2023-03-15T04:40:39.517Z,13.45
2023-03-15T04:43:06.529Z,15.82
2023-03-15T04:45:33.599Z,14.32
2023-03-15T04:48:01.615Z,16.90
2023-03-15T04:50:30.028Z,14.95
2023-03-15T04:52:59.626Z,16.27
2023-03-15T04:55:26.676Z,15.88
2023-03-15T04:57:53.920Z,16.23
2023-03-15T05:00:21.754Z,16.08
2023-03-15T05:02:54.824Z,15.60
2023-03-15T05:05:24.016Z,16.25
2023-03-15T05:07:51.126Z,17.17
2023-03-15T05:10:18.919Z,17.73
2023-03-15T05:12:45.990Z,17.58
2023-03-15T05:15:12.850Z,17.88
2023-03-15T05:17:39.805Z,18.45
2023-03-15T05:20:11.862Z,18.30
2023-03-15T05:22:39.533Z,18.75
2023-03-15T05:25:07.084Z,19.10
2023-03-15T05:27:34.534Z,18.70
2023-03-15T05:30:05.219Z,19.10
2023-03-15T05:32:34.394Z,19.05
2023-03-15T05:35:01.928Z,18.92
2023-03-15T05:37:29.550Z,19.88
2023-03-15T05:39:56.636Z,21.75
2023-03-15T05:42:26.287Z,21.02
2023-03-15T05:44:53.893Z,22.70
2023-03-15T05:47:21.262Z,22.38
2023-03-15T05:49:48.648Z,21.67
2023-03-15T05:52:16.466Z,23.08
2023-03-15T05:54:43.399Z,21.85
2023-03-15T05:57:10.808Z,22.15
2023-03-15T05:59:37.603Z,21.77
2023-03-15T06:02:04.678Z,21.60
2023-03-15T06:04:31.735Z,20.50
2023-03-15T06:06:58.577Z,20.27
2023-03-15T06:09:25.562Z,20.58
2023-03-15T06:11:53.639Z,20.40
2023-03-15T06:14:20.508Z,20.30
2023-03-15T06:16:47.395Z,20.65
2023-03-15T06:19:14.262Z,19.58
2023-03-15T06:21:41.057Z,21.00
2023-03-15T06:24:08.136Z,19.70
2023-03-15T06:26:34.962Z,19.67
2023-03-15T06:29:01.742Z,19.20
2023-03-15T06:31:28.728Z,19.10
2023-03-15T06:33:55.674Z,18.77
2023-03-15T06:36:24.481Z,18.23
2023-03-15T06:38:54.531Z,18.27
2023-03-15T06:41:21.853Z,17.98
2023-03-15T06:43:48.662Z,17.95
2023-03-15T06:46:15.584Z,19.30
2023-03-15T06:48:42.655Z,21.20
2023-03-15T06:51:09.787Z,16.98
2023-03-15T06:53:41.413Z,16.92
2023-03-15T06:56:08.277Z,17.38
2023-03-15T06:58:35.079Z,15.85
2023-03-15T07:01:01.899Z,16.10
2023-03-15T07:03:28.762Z,14.98
2023-03-15T07:05:55.753Z,12.95
2023-03-15T07:08:24.424Z,13.60
2023-03-15T07:10:52.170Z,12.32
2023-03-15T07:13:19.650Z,12.55
2023-03-15T07:15:47.857Z,10.70
2023-03-15T07:18:14.771Z,10.85
2023-03-15T07:20:41.937Z,9.57
2023-03-15T07:23:08.733Z,8.35
2023-03-15T07:25:48.242Z,8.25
2023-03-15T07:28:21.623Z,8.63
2023-03-15T07:30:58.314Z,7.38
2023-03-15T07:33:26.789Z,7.28
2023-03-15T07:35:54.208Z,7.05
2023-03-15T07:38:22.686Z,5.90
2023-03-15T07:40:49.790Z,6.75
2023-03-15T07:43:17.163Z,6.55
2023-03-15T07:45:44.244Z,5.57
2023-03-15T07:48:11.292Z,6.38
2023-03-15T07:50:38.291Z,6.25
2023-03-15T07:53:06.143Z,5.88
2023-03-15T07:55:34.097Z,4.78
2023-03-15T07:58:01.611Z,4.22
2023-03-15T08:00:29.763Z,3.30
2023-03-15T08:02:56.654Z,2.90
2023-03-15T08:05:24.354Z,2.90
2023-03-15T08:07:51.655Z,3.80
2023-03-15T08:10:18.702Z,3.97
2023-03-15T08:12:45.706Z,2.50
2023-03-15T08:15:14.466Z,2.80
2023-03-15T08:17:42.438Z,2.55
2023-03-15T08:20:11.743Z,2.35
2023-03-15T08:22:39.335Z,3.72
2023-03-15T08:25:06.588Z,5.20
2023-03-15T08:27:33.354Z,5.20
2023-03-15T08:30:00.458Z,4.63
2023-03-15T08:32:27.340Z,4.53
2023-03-15T08:34:54.297Z,5.20
2023-03-15T08:37:21.256Z,4.80
2023-03-15T08:39:48.180Z,5.20
2023-03-15T08:42:14.954Z,5.28
2023-03-15T08:44:41.911Z,5.38
2023-03-15T08:47:08.922Z,5.13
2023-03-15T08:49:35.929Z,4.10
2023-03-15T08:52:02.991Z,4.60
2023-03-15T08:54:29.820Z,4.60
2023-03-15T08:56:56.794Z,7.05
2023-03-15T08:59:31.712Z,5.93
2023-03-15T09:02:01.052Z,6.30
2023-03-15T09:04:28.077Z,6.20
2023-03-15T09:06:55.065Z,6.00
2023-03-15T09:09:22.269Z,5.32
2023-03-15T09:11:49.412Z,3.50
2023-03-15T09:14:16.371Z,3.08
2023-03-15T09:16:43.244Z,3.47
2023-03-15T09:19:10.135Z,3.58
2023-03-15T09:21:36.988Z,3.92
2023-03-15T09:24:04.034Z,4.07
2023-03-15T09:26:30.894Z,4.05
2023-03-15T09:28:57.677Z,4.30
2023-03-15T09:31:24.955Z,3.58
2023-03-15T09:33:51.926Z,3.97
2023-03-15T09:36:18.733Z,3.55
2023-03-15T09:38:47.924Z,3.22
2023-03-15T09:41:34.831Z,4.25
2023-03-15T09:44:09.680Z,3.40
2023-03-15T09:46:46.051Z,3.60
2023-03-15T09:49:31.885Z,3.28
2023-03-15T09:54:38.774Z,3.50
2023-03-15T09:57:16.840Z,3.58
2023-03-15T09:59:47.222Z,2.90
2023-03-15T10:02:25.396Z,3.00
2023-03-15T10:04:59.876Z,2.10
2023-03-15T10:07:26.784Z,1.65
2023-03-15T10:09:53.688Z,2.10
2023-03-15T10:12:29.682Z,1.45
2023-03-15T10:15:15.297Z,1.40
2023-03-15T10:18:18.107Z,1.33
2023-03-15T10:20:56.122Z,1.25
2023-03-15T10:23:33.562Z,1.05
2023-03-15T10:26:01.182Z,1.05
2023-03-15T10:28:34.851Z,1.20
2023-03-15T10:31:29.434Z,1.25
2023-03-15T10:33:59.632Z,1.55
2023-03-15T10:36:26.946Z,0.73
2023-03-15T10:38:53.733Z,0.90
2023-03-15T10:41:41.335Z,1.58
2023-03-15T10:44:26.869Z,1.58
2023-03-15T10:47:21.431Z,1.73
2023-03-15T10:49:50.378Z,1.42
2023-03-15T10:52:31.911Z,1.63
2023-03-15T10:55:12.746Z,2.00
2023-03-15T10:57:50.810Z,1.50
2023-03-15T11:00:29.509Z,1.25
2023-03-15T11:03:25.127Z,1.73
2023-03-15T11:08:22.441Z,1.98
2023-03-15T11:10:59.950Z,2.30
2023-03-15T11:13:32.099Z,1.80
2023-03-15T11:15:59.033Z,2.13
2023-03-15T11:18:33.113Z,1.88
2023-03-15T11:21:03.075Z,1.70
2023-03-15T11:23:34.764Z,1.92
2023-03-15T11:26:02.131Z,2.00
2023-03-15T11:28:31.884Z,1.98
2023-03-15T11:31:01.011Z,1.80
2023-03-15T11:33:40.046Z,2.00
2023-03-15T11:36:13.538Z,2.00
2023-03-15T11:38:44.116Z,1.85
2023-03-15T11:41:35.363Z,1.80
2023-03-15T11:44:37.539Z,1.75
2023-03-15T11:47:27.979Z,1.50
2023-03-15T11:49:56.573Z,1.30
2023-03-15T11:52:26.681Z,1.45
2023-03-15T11:54:57.886Z,1.80
2023-03-15T11:57:44.011Z,2.78
2023-03-15T12:00:35.866Z,1.70
2023-03-15T12:03:34.393Z,1.90
2023-03-15T12:06:07.319Z,1.55
2023-03-15T12:08:53.762Z,1.83
2023-03-15T12:11:20.679Z,1.40
2023-03-15T12:13:59.585Z,1.83
2023-03-15T12:16:29.458Z,1.42
2023-03-15T12:19:02.936Z,1.20
2023-03-15T12:21:41.546Z,1.20
2023-03-15T12:24:27.200Z,1.33
2023-03-15T12:27:07.562Z,1.08
2023-03-15T12:29:36.219Z,1.05
2023-03-15T12:32:03.025Z,1.10
2023-03-15T12:34:49.965Z,1.10
2023-03-15T12:37:39.580Z,1.00
2023-03-15T12:40:15.846Z,1.20
2023-03-15T12:42:42.579Z,1.40
2023-03-15T12:45:18.286Z,1.60
2023-03-15T12:48:12.890Z,1.60
2023-03-15T12:50:45.959Z,1.50
2023-03-15T12:53:38.427Z,1.30
2023-03-15T12:56:38.972Z,1.52
2023-03-15T12:59:23.392Z,1.52
2023-03-15T13:01:52.041Z,1.10
2023-03-15T13:04:19.000Z,1.50
2023-03-15T13:06:48.756Z,1.30
2023-03-15T13:09:27.552Z,1.48
2023-03-15T13:11:59.590Z,1.33
2023-03-15T13:15:06.724Z,1.20
2023-03-15T13:17:43.680Z,1.08
2023-03-15T13:20:29.749Z,1.25
2023-03-15T13:23:20.166Z,1.55
2023-03-15T13:26:02.774Z,1.38
2023-03-15T13:28:40.099Z,1.75
2023-03-15T13:31:20.476Z,1.38
2023-03-15T13:33:49.371Z,1.48
2023-03-15T13:36:20.470Z,2.20
2023-03-15T13:38:50.695Z,1.73
2023-03-15T13:41:29.243Z,1.77
2023-03-15T13:44:02.104Z,1.20
2023-03-15T13:46:31.165Z,1.63
2023-03-15T13:49:00.542Z,1.30
2023-03-15T13:51:28.641Z,1.50
2023-03-15T13:54:07.636Z,1.60
2023-03-15T13:56:48.873Z,1.80
2023-03-15T13:59:17.421Z,2.20
2023-03-15T14:01:44.422Z,1.50
2023-03-15T14:04:17.592Z,1.95
2023-03-15T14:06:49.996Z,1.83
2023-03-15T14:09:22.893Z,1.65
2023-03-15T14:12:23.165Z,1.80
2023-03-15T14:14:51.896Z,1.80
2023-03-15T14:17:27.089Z,2.35
2023-03-15T14:20:14.861Z,2.57
2023-03-15T14:22:42.549Z,1.85
2023-03-15T14:25:22.519Z,1.90
2023-03-15T14:27:49.788Z,1.63
2023-03-15T14:30:25.519Z,1.30
2023-03-15T14:32:58.896Z,1.48
2023-03-15T14:35:40.133Z,1.52
2023-03-15T14:38:16.144Z,1.58
2023-03-15T14:40:43.035Z,1.35
2023-03-15T14:43:10.379Z,1.30
2023-03-15T14:45:39.777Z,1.30
2023-03-15T14:48:17.434Z,1.15
2023-03-15T14:50:45.967Z,1.48
2023-03-15T14:53:19.882Z,1.30
2023-03-15T14:55:47.286Z,1.42
2023-03-15T14:58:15.354Z,1.08
2023-03-15T15:00:44.431Z,1.63
2023-03-15T15:03:38.203Z,1.00
2023-03-15T15:06:08.404Z,1.23
2023-03-15T15:08:39.920Z,1.20
2023-03-15T15:11:10.589Z,1.15
2023-03-15T15:13:38.986Z,1.05
2023-03-15T15:16:07.170Z,1.13
2023-03-15T15:18:36.546Z,1.20
2023-03-15T15:21:16.375Z,1.05
2023-03-15T15:23:57.468Z,1.23
2023-03-15T15:26:27.305Z,1.15
2023-03-15T15:28:55.151Z,1.23
2023-03-15T15:31:24.337Z,1.10
2023-03-15T15:33:54.995Z,0.93
2023-03-15T15:36:31.094Z,0.98
2023-03-15T15:39:05.751Z,1.10
2023-03-15T15:41:33.554Z,0.90
2023-03-15T15:44:01.177Z,1.00
2023-03-15T15:46:28.210Z,0.90
2023-03-15T15:48:55.360Z,1.15
2023-03-15T15:51:28.763Z,1.30
2023-03-15T15:53:57.968Z,1.00
2023-03-15T15:56:37.010Z,1.15
2023-03-15T15:59:04.979Z,1.10
2023-03-15T16:01:32.780Z,1.30
2023-03-15T16:04:01.875Z,1.10
2023-03-15T16:06:28.848Z,0.90
2023-03-15T16:08:56.036Z,0.90
2023-03-15T16:11:23.219Z,0.90
2023-03-15T16:13:53.940Z,1.00
2023-03-15T16:16:21.778Z,1.00
2023-03-15T16:18:48.687Z,1.00
2023-03-15T16:21:33.682Z,0.90
2023-03-15T16:24:18.633Z,1.15
2023-03-15T16:26:46.687Z,0.93
2023-03-15T16:29:24.608Z,0.75
2023-03-15T16:31:51.513Z,1.10
2023-03-15T16:34:20.023Z,0.90
2023-03-15T16:36:49.742Z,1.85
2023-03-15T16:39:17.343Z,1.33
2023-03-15T16:41:44.309Z,1.13
2023-03-15T16:44:17.354Z,1.50
2023-03-15T16:46:44.742Z,1.25
2023-03-15T16:49:12.688Z,1.20
2023-03-15T16:51:45.250Z,1.25
2023-03-15T16:54:24.308Z,1.20
2023-03-15T16:56:58.132Z,1.10
2023-03-15T16:59:24.945Z,1.20
2023-03-15T17:01:52.050Z,1.52
2023-03-15T17:04:19.551Z,1.00
2023-03-15T17:06:46.834Z,1.23
2023-03-15T17:09:23.328Z,1.20
2023-03-15T17:11:56.094Z,1.27
2023-03-15T17:14:29.900Z,1.30
2023-03-15T17:16:56.892Z,1.40
2023-03-15T17:19:24.282Z,1.20
2023-03-15T17:21:52.372Z,1.48
2023-03-15T17:24:34.100Z,1.20
2023-03-15T17:27:02.007Z,1.10
2023-03-15T17:29:29.044Z,1.30
2023-03-15T17:31:55.929Z,1.52
2023-03-15T17:34:23.244Z,1.00
2023-03-15T17:36:50.422Z,1.45
2023-03-15T17:39:18.614Z,1.33
2023-03-15T17:41:49.059Z,1.25
2023-03-15T17:44:16.174Z,1.20
2023-03-15T17:46:43.521Z,1.33
2023-03-15T17:49:13.603Z,1.20
2023-03-15T17:51:41.054Z,1.45
2023-03-15T17:54:14.034Z,1.55
2023-03-15T17:56:41.382Z,2.22
2023-03-15T17:59:11.747Z,2.42
2023-03-15T18:01:46.429Z,2.25
2023-03-15T18:04:13.927Z,1.67
2023-03-15T18:06:42.072Z,2.00
2023-03-15T18:09:13.228Z,2.00
2023-03-15T18:11:42.743Z,1.60
2023-03-15T18:14:16.740Z,1.20
2023-03-15T18:16:45.436Z,1.30
2023-03-15T18:19:12.708Z,1.40
2023-03-15T18:21:40.337Z,1.50
2023-03-15T18:24:07.609Z,1.58
2023-03-15T18:26:34.938Z,1.65
2023-03-15T18:29:01.887Z,2.10
2023-03-15T18:31:28.992Z,2.00
2023-03-15T18:33:56.386Z,2.53
2023-03-15T18:36:23.410Z,2.20
2023-03-15T18:38:50.388Z,2.83
2023-03-15T18:41:20.664Z,2.25
2023-03-15T18:43:51.750Z,2.45
2023-03-15T18:46:20.850Z,3.17
2023-03-15T18:48:49.818Z,2.42
2023-03-15T18:51:21.622Z,3.00
2023-03-15T18:53:49.503Z,4.00
2023-03-15T18:56:24.785Z,2.97
2023-03-15T18:58:53.423Z,2.85
2023-03-15T19:01:25.109Z,2.90
2023-03-15T19:03:53.535Z,3.25
2023-03-15T19:06:21.774Z,3.80
2023-03-15T19:08:53.224Z,3.38
2023-03-15T19:11:21.350Z,3.17
2023-03-15T19:13:51.492Z,3.10
2023-03-15T19:16:22.783Z,3.50
2023-03-15T19:18:51.668Z,3.78
2023-03-15T19:21:21.893Z,3.70
2023-03-15T19:23:48.892Z,4.00
2023-03-15T19:26:15.982Z,3.55
2023-03-15T19:28:43.083Z,3.17
2023-03-15T19:31:10.026Z,3.25
2023-03-15T19:33:37.432Z,3.53
2023-03-15T19:36:05.020Z,3.60
2023-03-15T19:38:32.933Z,3.20
2023-03-15T19:41:07.683Z,2.85
2023-03-15T19:43:35.505Z,3.20
2023-03-15T19:46:04.631Z,3.00
2023-03-15T19:48:31.451Z,3.50
2023-03-15T19:50:58.304Z,3.40
2023-03-15T19:53:25.656Z,3.60
2023-03-15T19:55:52.650Z,3.45
2023-03-15T19:58:19.595Z,3.42
2023-03-15T20:00:46.488Z,3.95
2023-03-15T20:03:13.458Z,3.38
2023-03-15T20:05:40.835Z,3.88
2023-03-15T20:08:08.573Z,4.40
2023-03-15T20:10:35.674Z,4.00
2023-03-15T20:13:03.537Z,3.70
2023-03-15T20:15:30.710Z,4.00
2023-03-15T20:17:57.603Z,4.00
2023-03-15T20:20:24.615Z,3.63
2023-03-15T20:22:51.520Z,4.35
2023-03-15T20:25:20.172Z,4.25
2023-03-15T20:27:47.844Z,4.35
2023-03-15T20:30:16.762Z,4.35
2023-03-15T20:32:43.980Z,4.35
2023-03-15T20:35:12.130Z,4.32
2023-03-15T20:37:40.705Z,4.43
2023-03-15T20:40:11.253Z,4.47
2023-03-15T20:42:38.432Z,4.60
2023-03-15T20:45:07.246Z,6.75
2023-03-15T20:47:34.533Z,4.55
2023-03-15T20:50:01.852Z,4.40
2023-03-15T20:52:28.855Z,4.30
2023-03-15T20:54:55.955Z,4.70
2023-03-15T20:57:23.307Z,4.38
2023-03-15T20:59:51.529Z,4.78
2023-03-15T21:02:18.844Z,4.82
2023-03-15T21:04:46.498Z,4.47
2023-03-15T21:07:13.813Z,5.15
2023-03-15T21:09:41.430Z,5.07
2023-03-15T21:12:09.478Z,5.10
2023-03-15T21:14:36.857Z,5.10
2023-03-15T21:17:04.200Z,4.78
2023-03-15T21:19:35.167Z,4.50
2023-03-15T21:22:02.484Z,6.05
2023-03-15T21:24:31.387Z,5.30
2023-03-15T21:26:58.847Z,6.15
2023-03-15T21:29:26.074Z,5.15
2023-03-15T21:31:53.413Z,4.97
2023-03-15T21:34:20.967Z,5.03
2023-03-15T21:36:48.183Z,5.18
2023-03-15T21:39:15.473Z,6.43
2023-03-15T21:41:45.110Z,5.47
2023-03-15T21:44:12.555Z,4.95
2023-03-15T21:46:39.848Z,5.28
2023-03-15T21:49:07.090Z,5.57
2023-03-15T21:51:34.194Z,5.55
2023-03-15T21:54:01.367Z,5.22
2023-03-15T21:56:28.610Z,5.82
2023-03-15T21:58:55.887Z,5.57
2023-03-15T22:01:22.874Z,6.22
2023-03-15T22:03:53.299Z,5.80
2023-03-15T22:06:21.807Z,6.20
2023-03-15T22:08:49.540Z,6.00
2023-03-15T22:11:16.879Z,6.20
2023-03-15T22:13:43.995Z,5.75
2023-03-15T22:16:12.229Z,5.82
2023-03-15T22:18:39.357Z,6.00
2023-03-15T22:21:07.056Z,6.47
2023-03-15T22:23:33.877Z,5.75
2023-03-15T22:26:00.900Z,5.50
2023-03-15T22:28:27.776Z,6.43
2023-03-15T22:30:54.695Z,6.22
2023-03-15T22:33:22.874Z,6.43
2023-03-15T22:35:58.072Z,6.32
2023-03-15T22:38:26.229Z,6.53
2023-03-15T22:41:03.895Z,5.80
2023-03-15T22:43:30.794Z,5.97
2023-03-15T22:45:57.793Z,6.47
2023-03-15T22:48:24.856Z,6.47
2023-03-15T22:51:06.385Z,5.97
2023-03-15T22:53:34.234Z,5.78
2023-03-15T22:56:01.266Z,6.03
2023-03-15T22:58:28.161Z,6.00
2023-03-15T23:00:55.256Z,5.90
2023-03-15T23:03:22.275Z,6.03
2023-03-15T23:05:49.321Z,5.70
2023-03-15T23:08:16.149Z,5.93
2023-03-15T23:10:42.997Z,5.93
2023-03-15T23:13:09.982Z,5.82
2023-03-15T23:15:36.914Z,5.88
2023-03-15T23:18:05.435Z,5.50
2023-03-15T23:20:32.840Z,6.10
2023-03-15T23:22:59.730Z,6.25
2023-03-15T23:25:29.757Z,6.25
2023-03-15T23:27:57.049Z,5.90
2023-03-15T23:30:24.081Z,5.80
2023-03-15T23:32:57.555Z,6.55
2023-03-15T23:35:24.929Z,5.82
2023-03-15T23:37:56.211Z,5.82
2023-03-15T23:40:23.344Z,5.60
2023-03-15T23:42:58.793Z,5.70
2023-03-15T23:45:28.018Z,5.90
2023-03-15T23:47:54.998Z,5.82
2023-03-15T23:50:25.716Z,5.35
2023-03-15T23:52:54.618Z,5.40
2023-03-15T23:55:22.257Z,5.60
2023-03-15T23:57:49.389Z,5.70
